sensor_id;sensor_type;location;lat;lon;timestamp;pressure;altitude;pressure_sealevel;temperature;humidity
24440;BME280;12618;54.386;18.394;2023-05-16T00:02:24;98392.31;;;11.88;100.00
24440;BME280;12618;54.386;18.394;2023-05-16T00:04:56;98392.55;;;11.87;100.00
24440;BME280;12618;54.386;18.394;2023-05-16T00:07:28;98390.63;;;11.87;100.00
24440;BME280;12618;54.386;18.394;2023-05-16T00:09:59;98390.94;;;11.87;100.00
24440;BME280;12618;54.386;18.394;2023-05-16T00:12:31;98392.54;;;11.89;100.00
24440;BME280;12618;54.386;18.394;2023-05-16T00:15:07;98397.66;;;11.94;100.00
24440;BME280;12618;54.386;18.394;2023-05-16T00:17:40;98392.27;;;11.95;100.00
24440;BME280;12618;54.386;18.394;2023-05-16T00:20:17;98389.64;;;11.97;100.00
24440;BME280;12618;54.386;18.394;2023-05-16T00:22:54;98384.47;;;11.98;100.00
24440;BME280;12618;54.386;18.394;2023-05-16T00:25:28;98383.27;;;12.00;100.00
24440;BME280;12618;54.386;18.394;2023-05-16T00:28:00;98385.89;;;11.98;100.00
24440;BME280;12618;54.386;18.394;2023-05-16T00:30:31;98387.42;;;11.98;100.00
24440;BME280;12618;54.386;18.394;2023-05-16T00:33:03;98391.01;;;11.95;100.00
24440;BME280;12618;54.386;18.394;2023-05-16T00:35:35;98389.31;;;11.92;100.00
24440;BME280;12618;54.386;18.394;2023-05-16T00:38:06;98388.48;;;11.92;100.00
24440;BME280;12618;54.386;18.394;2023-05-16T00:40:40;98390.19;;;11.90;100.00
24440;BME280;12618;54.386;18.394;2023-05-16T00:43:12;98390.21;;;11.90;100.00
24440;BME280;12618;54.386;18.394;2023-05-16T00:45:44;98392.52;;;11.90;100.00
24440;BME280;12618;54.386;18.394;2023-05-16T00:48:19;98385.66;;;11.89;100.00
24440;BME280;12618;54.386;18.394;2023-05-16T00:50:51;98381.31;;;11.89;100.00
24440;BME280;12618;54.386;18.394;2023-05-16T00:53:24;98380.09;;;11.86;100.00
24440;BME280;12618;54.386;18.394;2023-05-16T00:55:56;98379.46;;;11.85;100.00
24440;BME280;12618;54.386;18.394;2023-05-16T00:58:29;98378.11;;;11.82;100.00
24440;BME280;12618;54.386;18.394;2023-05-16T01:01:02;98378.23;;;11.83;100.00
24440;BME280;12618;54.386;18.394;2023-05-16T01:03:35;98375.47;;;11.82;100.00
24440;BME280;12618;54.386;18.394;2023-05-16T01:06:08;98379.02;;;11.84;100.00
24440;BME280;12618;54.386;18.394;2023-05-16T01:08:40;98381.06;;;11.83;100.00
24440;BME280;12618;54.386;18.394;2023-05-16T01:11:27;98384.52;;;11.81;100.00
24440;BME280;12618;54.386;18.394;2023-05-16T01:14:18;98379.63;;;11.81;100.00
24440;BME280;12618;54.386;18.394;2023-05-16T01:28:21;98374.67;;;11.59;100.00
24440;BME280;12618;54.386;18.394;2023-05-16T01:30:53;98374.69;;;11.56;100.00
24440;BME280;12618;54.386;18.394;2023-05-16T01:33:25;98377.73;;;11.53;100.00
24440;BME280;12618;54.386;18.394;2023-05-16T01:39:24;98377.67;;;11.47;100.00
24440;BME280;12618;54.386;18.394;2023-05-16T01:42:05;98377.05;;;11.45;100.00
24440;BME280;12618;54.386;18.394;2023-05-16T01:44:45;98381.39;;;11.44;100.00
24440;BME280;12618;54.386;18.394;2023-05-16T01:47:19;98378.16;;;11.42;100.00
24440;BME280;12618;54.386;18.394;2023-05-16T01:50:10;98376.22;;;11.45;100.00
24440;BME280;12618;54.386;18.394;2023-05-16T01:55:38;98370.83;;;11.47;100.00
24440;BME280;12618;54.386;18.394;2023-05-16T01:58:15;98372.69;;;11.47;100.00
24440;BME280;12618;54.386;18.394;2023-05-16T02:00:47;98377.47;;;11.49;100.00
24440;BME280;12618;54.386;18.394;2023-05-16T02:03:19;98376.27;;;11.49;100.00
24440;BME280;12618;54.386;18.394;2023-05-16T02:05:51;98378.85;;;11.52;100.00
24440;BME280;12618;54.386;18.394;2023-05-16T02:08:24;98381.24;;;11.50;100.00
24440;BME280;12618;54.386;18.394;2023-05-16T02:10:57;98380.06;;;11.50;100.00
24440;BME280;12618;54.386;18.394;2023-05-16T02:13:31;98382.26;;;11.51;100.00
24440;BME280;12618;54.386;18.394;2023-05-16T02:18:56;98383.11;;;11.47;100.00
24440;BME280;12618;54.386;18.394;2023-05-16T02:21:28;98387.98;;;11.48;100.00
24440;BME280;12618;54.386;18.394;2023-05-16T02:23:59;98387.29;;;11.50;100.00
24440;BME280;12618;54.386;18.394;2023-05-16T02:26:31;98388.86;;;11.50;100.00
24440;BME280;12618;54.386;18.394;2023-05-16T02:29:04;98390.84;;;11.52;100.00
24440;BME280;12618;54.386;18.394;2023-05-16T02:31:36;98390.88;;;11.51;100.00
24440;BME280;12618;54.386;18.394;2023-05-16T02:34:08;98389.61;;;11.52;100.00
24440;BME280;12618;54.386;18.394;2023-05-16T02:36:41;98386.80;;;11.54;100.00
24440;BME280;12618;54.386;18.394;2023-05-16T02:39:13;98387.71;;;11.54;100.00
24440;BME280;12618;54.386;18.394;2023-05-16T02:41:45;98387.43;;;11.53;100.00
24440;BME280;12618;54.386;18.394;2023-05-16T02:44:16;98387.88;;;11.51;100.00
24440;BME280;12618;54.386;18.394;2023-05-16T02:46:48;98385.79;;;11.51;100.00
24440;BME280;12618;54.386;18.394;2023-05-16T02:49:20;98388.77;;;11.51;100.00
24440;BME280;12618;54.386;18.394;2023-05-16T02:51:51;98386.19;;;11.50;100.00
24440;BME280;12618;54.386;18.394;2023-05-16T02:54:23;98391.15;;;11.48;100.00
24440;BME280;12618;54.386;18.394;2023-05-16T02:56:55;98389.66;;;11.49;100.00
24440;BME280;12618;54.386;18.394;2023-05-16T02:59:29;98388.12;;;11.48;100.00
24440;BME280;12618;54.386;18.394;2023-05-16T03:02:04;98392.45;;;11.49;100.00
24440;BME280;12618;54.386;18.394;2023-05-16T03:04:38;98394.86;;;11.50;100.00
24440;BME280;12618;54.386;18.394;2023-05-16T03:07:10;98397.81;;;11.51;100.00
24440;BME280;12618;54.386;18.394;2023-05-16T03:09:41;98398.88;;;11.50;100.00
24440;BME280;12618;54.386;18.394;2023-05-16T03:12:13;98404.73;;;11.50;100.00
24440;BME280;12618;54.386;18.394;2023-05-16T03:14:45;98406.13;;;11.48;100.00
24440;BME280;12618;54.386;18.394;2023-05-16T03:17:20;98410.67;;;11.46;100.00
24440;BME280;12618;54.386;18.394;2023-05-16T03:19:52;98412.64;;;11.43;100.00
24440;BME280;12618;54.386;18.394;2023-05-16T03:22:27;98415.11;;;11.43;100.00
24440;BME280;12618;54.386;18.394;2023-05-16T03:24:58;98417.44;;;11.42;100.00
24440;BME280;12618;54.386;18.394;2023-05-16T03:27:30;98421.02;;;11.42;100.00
24440;BME280;12618;54.386;18.394;2023-05-16T03:30:02;98420.91;;;11.41;100.00
24440;BME280;12618;54.386;18.394;2023-05-16T03:32:34;98421.45;;;11.38;100.00
24440;BME280;12618;54.386;18.394;2023-05-16T03:35:06;98424.59;;;11.34;100.00
24440;BME280;12618;54.386;18.394;2023-05-16T03:37:38;98421.95;;;11.26;100.00
24440;BME280;12618;54.386;18.394;2023-05-16T03:40:10;98426.43;;;11.23;100.00
24440;BME280;12618;54.386;18.394;2023-05-16T03:42:42;98427.84;;;11.20;100.00
24440;BME280;12618;54.386;18.394;2023-05-16T03:45:14;98431.48;;;11.14;100.00
24440;BME280;12618;54.386;18.394;2023-05-16T03:47:48;98429.88;;;11.06;100.00
24440;BME280;12618;54.386;18.394;2023-05-16T03:50:20;98435.66;;;11.02;100.00
24440;BME280;12618;54.386;18.394;2023-05-16T03:52:52;98444.23;;;10.95;100.00
24440;BME280;12618;54.386;18.394;2023-05-16T03:55:27;98447.05;;;10.90;100.00
24440;BME280;12618;54.386;18.394;2023-05-16T03:58:00;98450.20;;;10.82;100.00
24440;BME280;12618;54.386;18.394;2023-05-16T04:00:31;98452.83;;;10.77;100.00
24440;BME280;12618;54.386;18.394;2023-05-16T04:03:05;98458.14;;;10.77;100.00
24440;BME280;12618;54.386;18.394;2023-05-16T04:05:37;98460.66;;;10.71;100.00
24440;BME280;12618;54.386;18.394;2023-05-16T04:08:09;98467.85;;;10.69;100.00
24440;BME280;12618;54.386;18.394;2023-05-16T04:10:41;98465.98;;;10.65;100.00
24440;BME280;12618;54.386;18.394;2023-05-16T04:13:13;98467.82;;;10.64;100.00
24440;BME280;12618;54.386;18.394;2023-05-16T04:15:45;98467.17;;;10.66;100.00
24440;BME280;12618;54.386;18.394;2023-05-16T04:18:17;98470.06;;;10.67;100.00
24440;BME280;12618;54.386;18.394;2023-05-16T04:20:49;98470.10;;;10.70;100.00
24440;BME280;12618;54.386;18.394;2023-05-16T04:23:21;98471.31;;;10.72;100.00
24440;BME280;12618;54.386;18.394;2023-05-16T04:25:54;98476.92;;;10.72;100.00
24440;BME280;12618;54.386;18.394;2023-05-16T04:28:29;98473.38;;;10.73;100.00
24440;BME280;12618;54.386;18.394;2023-05-16T04:31:01;98481.95;;;10.73;100.00
24440;BME280;12618;54.386;18.394;2023-05-16T04:33:33;98482.95;;;10.69;100.00
24440;BME280;12618;54.386;18.394;2023-05-16T04:36:05;98486.00;;;10.66;100.00
24440;BME280;12618;54.386;18.394;2023-05-16T04:38:37;98487.81;;;10.65;100.00
24440;BME280;12618;54.386;18.394;2023-05-16T04:41:09;98494.52;;;10.59;100.00
24440;BME280;12618;54.386;18.394;2023-05-16T04:43:43;98498.91;;;10.49;100.00
24440;BME280;12618;54.386;18.394;2023-05-16T04:46:14;98493.92;;;10.42;100.00
24440;BME280;12618;54.386;18.394;2023-05-16T04:48:46;98498.46;;;10.40;100.00
24440;BME280;12618;54.386;18.394;2023-05-16T04:51:18;98495.64;;;10.35;100.00
24440;BME280;12618;54.386;18.394;2023-05-16T04:53:50;98501.06;;;10.33;100.00
24440;BME280;12618;54.386;18.394;2023-05-16T04:56:21;98502.48;;;10.35;100.00
24440;BME280;12618;54.386;18.394;2023-05-16T04:58:53;98499.35;;;10.43;100.00
24440;BME280;12618;54.386;18.394;2023-05-16T05:01:25;98501.71;;;10.57;100.00
24440;BME280;12618;54.386;18.394;2023-05-16T05:03:56;98499.85;;;10.66;100.00
24440;BME280;12618;54.386;18.394;2023-05-16T05:06:28;98505.01;;;10.68;100.00
24440;BME280;12618;54.386;18.394;2023-05-16T05:09:02;98509.38;;;10.69;100.00
24440;BME280;12618;54.386;18.394;2023-05-16T05:11:39;98513.58;;;10.69;100.00
24440;BME280;12618;54.386;18.394;2023-05-16T05:14:11;98511.00;;;10.68;100.00
24440;BME280;12618;54.386;18.394;2023-05-16T05:16:45;98515.80;;;10.70;100.00
24440;BME280;12618;54.386;18.394;2023-05-16T05:19:17;98521.00;;;10.66;100.00
24440;BME280;12618;54.386;18.394;2023-05-16T05:21:49;98519.84;;;10.60;100.00
24440;BME280;12618;54.386;18.394;2023-05-16T05:24:21;98527.14;;;10.53;100.00
24440;BME280;12618;54.386;18.394;2023-05-16T05:26:52;98530.41;;;10.51;100.00
24440;BME280;12618;54.386;18.394;2023-05-16T05:29:29;98534.72;;;10.50;100.00
24440;BME280;12618;54.386;18.394;2023-05-16T05:32:01;98536.34;;;10.49;100.00
24440;BME280;12618;54.386;18.394;2023-05-16T05:34:33;98544.41;;;10.47;100.00
24440;BME280;12618;54.386;18.394;2023-05-16T05:37:05;98549.52;;;10.47;100.00
24440;BME280;12618;54.386;18.394;2023-05-16T05:39:36;98546.12;;;10.51;100.00
24440;BME280;12618;54.386;18.394;2023-05-16T05:42:08;98546.04;;;10.54;100.00
24440;BME280;12618;54.386;18.394;2023-05-16T05:44:40;98548.27;;;10.61;100.00
24440;BME280;12618;54.386;18.394;2023-05-16T05:47:12;98550.17;;;10.63;100.00
24440;BME280;12618;54.386;18.394;2023-05-16T05:49:47;98556.52;;;10.63;100.00
24440;BME280;12618;54.386;18.394;2023-05-16T05:52:21;98559.59;;;10.62;100.00
24440;BME280;12618;54.386;18.394;2023-05-16T05:54:53;98559.35;;;10.66;100.00
24440;BME280;12618;54.386;18.394;2023-05-16T05:57:25;98558.48;;;10.68;100.00
24440;BME280;12618;54.386;18.394;2023-05-16T05:59:57;98563.34;;;10.74;100.00
24440;BME280;12618;54.386;18.394;2023-05-16T06:02:28;98570.23;;;10.79;100.00
24440;BME280;12618;54.386;18.394;2023-05-16T06:05:00;98571.95;;;10.85;100.00
24440;BME280;12618;54.386;18.394;2023-05-16T06:07:32;98585.07;;;10.91;100.00
24440;BME280;12618;54.386;18.394;2023-05-16T06:10:07;98584.05;;;10.93;100.00
24440;BME280;12618;54.386;18.394;2023-05-16T06:12:39;98598.04;;;11.00;100.00
24440;BME280;12618;54.386;18.394;2023-05-16T06:15:11;98604.70;;;11.03;100.00
24440;BME280;12618;54.386;18.394;2023-05-16T06:17:43;98613.70;;;11.11;100.00
24440;BME280;12618;54.386;18.394;2023-05-16T06:20:15;98621.86;;;11.22;100.00
24440;BME280;12618;54.386;18.394;2023-05-16T06:22:47;98621.73;;;11.27;100.00
24440;BME280;12618;54.386;18.394;2023-05-16T06:25:19;98621.95;;;11.31;100.00
24440;BME280;12618;54.386;18.394;2023-05-16T06:27:51;98627.88;;;11.25;100.00
24440;BME280;12618;54.386;18.394;2023-05-16T06:30:23;98631.48;;;11.21;100.00
24440;BME280;12618;54.386;18.394;2023-05-16T06:32:55;98638.60;;;11.15;100.00
24440;BME280;12618;54.386;18.394;2023-05-16T06:35:27;98655.69;;;11.07;100.00
24440;BME280;12618;54.386;18.394;2023-05-16T06:37:59;98662.23;;;11.01;100.00
24440;BME280;12618;54.386;18.394;2023-05-16T06:40:31;98671.33;;;10.91;100.00
24440;BME280;12618;54.386;18.394;2023-05-16T06:43:03;98675.95;;;10.80;100.00
24440;BME280;12618;54.386;18.394;2023-05-16T06:45:35;98676.20;;;10.73;100.00
24440;BME280;12618;54.386;18.394;2023-05-16T06:48:07;98684.13;;;10.70;100.00
24440;BME280;12618;54.386;18.394;2023-05-16T06:50:42;98690.29;;;10.70;100.00
24440;BME280;12618;54.386;18.394;2023-05-16T06:53:14;98699.55;;;10.66;100.00
24440;BME280;12618;54.386;18.394;2023-05-16T06:55:48;98710.55;;;10.67;100.00
24440;BME280;12618;54.386;18.394;2023-05-16T06:58:20;98714.40;;;10.67;100.00
24440;BME280;12618;54.386;18.394;2023-05-16T07:00:53;98724.31;;;10.69;100.00
24440;BME280;12618;54.386;18.394;2023-05-16T07:03:28;98726.20;;;10.70;100.00
24440;BME280;12618;54.386;18.394;2023-05-16T07:06:02;98731.88;;;10.74;100.00
24440;BME280;12618;54.386;18.394;2023-05-16T07:08:34;98737.61;;;10.78;100.00
24440;BME280;12618;54.386;18.394;2023-05-16T07:11:07;98745.29;;;10.82;100.00
24440;BME280;12618;54.386;18.394;2023-05-16T07:13:41;98754.52;;;10.81;100.00
24440;BME280;12618;54.386;18.394;2023-05-16T07:16:13;98764.41;;;10.77;100.00
24440;BME280;12618;54.386;18.394;2023-05-16T07:18:45;98759.35;;;10.74;100.00
24440;BME280;12618;54.386;18.394;2023-05-16T07:21:17;98764.11;;;10.76;100.00
24440;BME280;12618;54.386;18.394;2023-05-16T07:23:50;98772.84;;;10.80;100.00
24440;BME280;12618;54.386;18.394;2023-05-16T07:26:21;98780.19;;;10.81;100.00
24440;BME280;12618;54.386;18.394;2023-05-16T07:28:54;98783.39;;;10.86;100.00
24440;BME280;12618;54.386;18.394;2023-05-16T07:31:26;98793.80;;;10.85;100.00
24440;BME280;12618;54.386;18.394;2023-05-16T07:33:58;98797.98;;;10.86;100.00
24440;BME280;12618;54.386;18.394;2023-05-16T07:36:30;98810.55;;;10.82;100.00
24440;BME280;12618;54.386;18.394;2023-05-16T07:39:02;98818.39;;;10.78;100.00
24440;BME280;12618;54.386;18.394;2023-05-16T07:41:35;98818.92;;;10.75;100.00
24440;BME280;12618;54.386;18.394;2023-05-16T07:44:09;98826.45;;;10.75;100.00
24440;BME280;12618;54.386;18.394;2023-05-16T07:46:41;98828.03;;;10.73;100.00
24440;BME280;12618;54.386;18.394;2023-05-16T07:49:16;98839.66;;;10.72;100.00
24440;BME280;12618;54.386;18.394;2023-05-16T07:51:48;98843.06;;;10.74;100.00
24440;BME280;12618;54.386;18.394;2023-05-16T07:54:20;98843.97;;;10.77;100.00
